aviador You're here:

KILM Decoded Metar

WILMINGTON in NC, USA
Report Time2018-01-19 10:53:00
UTC Time2018-01-19 11:24:36
Flight Rules vfr VFR
Wind250° at 04 kt
W.Decomp.*RWY 24: 3.8 kt HW 1.2 kt RCW
RWY 17: 0.2 kt HW 4.0 kt RCW
W.Rank250° ranks 11
Current wind is below 250° avg. (8.1)
Visibility9999 m
Phenomena:N/A
Clouds:N/A
Expected CloudBase > 2,000 ft AGL from Temp-Dew spread
CeilingNone
Temp-2°C (ISA -17)
Dew Point-7°C (69% RH)
AAT-6.2°C
QNH1024 hPa
Density Alt-2,375 ft
Elevation30 ft
Report Wrong Elevation
Raw Report
KILM 191053Z AUTO 25004KT 10SM CLR M02/M07 A3025 RMK AO2 SLP242
T10171067=

Extra information for KILM:More info

Metar Taf Metar & Taf Last 4 Metars F.Rules Stats Wind Profile Meteogram Temp Stats Airport Information Weather charts Add Link Nearby VenuesMetar ALERT Operation Metar Decoded Social comments

AIRNAV info for KILM